Time;durP1;ratioP1;P1;durP2;ratioP2;P2;SDS_P1;SDS_P2;PMS_P1;PMS_P2;Temp;Humidity;BMP_temperature;BMP_pressure;BME280_temperature;BME280_humidity;BME280_pressure;Samples;Min_cycle;Max_cycle;Signal;HPM_P1;HPM_P2
2021/10/29 00:00:04;;;;;;;51.05;18.98;;;;;;;;;;5035818;28;20025;-85
2021/10/29 00:02:30;;;;;;;44.30;18.55;;;;;;;;;;5035733;28;20022;-89
2021/10/29 00:04:58;;;;;;;46.47;17.60;;;;;;;;;;5035652;28;20029;-87
2021/10/29 00:07:24;;;;;;;35.40;15.50;;;;;;;;;;5035648;28;20188;-89
2021/10/29 00:09:51;;;;;;;42.00;16.90;;;;;;;;;;5035579;28;20033;-89
2021/10/29 00:12:22;;;;;;;39.78;15.35;;;;;;;;;;5053362;28;20104;-88
2021/10/29 00:14:48;;;;;;;38.42;14.75;;;;;;;;;;5035706;28;20024;-89
2021/10/29 00:17:14;;;;;;;29.35;15.00;;;;;;;;;;5035687;28;20029;-88
2021/10/29 00:19:41;;;;;;;42.65;16.00;;;;;;;;;;5035673;28;20029;-89
2021/10/29 00:22:07;;;;;;;34.35;15.55;;;;;;;;;;5035365;28;20025;-87
2021/10/29 00:24:33;;;;;;;60.63;17.17;;;;;;;;;;5035118;28;20049;-90
2021/10/29 00:26:59;;;;;;;41.25;15.30;;;;;;;;;;5036082;28;20033;-88
2021/10/29 00:29:25;;;;;;;38.65;14.52;;;;;;;;;;5056661;28;20029;-90
2021/10/29 00:31:52;;;;;;;35.78;14.75;;;;;;;;;;5039024;28;20063;-90
2021/10/29 00:34:19;;;;;;;50.65;16.70;;;;;;;;;;5038917;28;20028;-90
2021/10/29 00:36:45;;;;;;;44.35;16.73;;;;;;;;;;5038793;28;20107;-90
2021/10/29 00:39:11;;;;;;;41.28;15.15;;;;;;;;;;5038911;28;20031;-90
2021/10/29 00:41:37;;;;;;;36.78;14.82;;;;;;;;;;5038668;28;20017;-89
2021/10/29 00:44:04;;;;;;;38.15;14.93;;;;;;;;;;5038811;28;20437;-87
2021/10/29 00:46:31;;;;;;;36.50;16.75;;;;;;;;;;5038814;28;20462;-88
2021/10/29 00:48:57;;;;;;;49.72;15.27;;;;;;;;;;5056786;28;20386;-87
2021/10/29 00:51:23;;;;;;;34.40;13.20;;;;;;;;;;5038518;28;20032;-91
2021/10/29 00:53:50;;;;;;;36.25;14.55;;;;;;;;;;5038698;28;20021;-89
2021/10/29 00:56:16;;;;;;;40.30;14.20;;;;;;;;;;5038723;28;20048;-90
2021/10/29 00:58:42;;;;;;;29.67;13.85;;;;;;;;;;5038483;28;20063;-89
2021/10/29 01:01:09;;;;;;;32.25;14.55;;;;;;;;;;5056227;28;20521;-90
2021/10/29 01:03:39;;;;;;;38.10;13.93;;;;;;;;;;5056215;28;20036;-89
2021/10/29 01:06:05;;;;;;;34.78;15.05;;;;;;;;;;5038273;28;20033;-90
2021/10/29 01:08:31;;;;;;;36.40;17.55;;;;;;;;;;5038140;28;20195;-90
2021/10/29 01:10:58;;;;;;;33.28;13.75;;;;;;;;;;5038473;28;20036;-89
2021/10/29 01:13:24;;;;;;;37.90;15.73;;;;;;;;;;5038166;28;20044;-90
2021/10/29 01:15:50;;;;;;;36.92;15.00;;;;;;;;;;5038302;28;20456;-90
2021/10/29 01:18:17;;;;;;;44.10;17.00;;;;;;;;;;5038161;28;20470;-89
2021/10/29 01:20:43;;;;;;;39.60;17.80;;;;;;;;;;5038114;28;20029;-90
2021/10/29 01:23:09;;;;;;;47.97;17.13;;;;;;;;;;5037843;28;20064;-88
2021/10/29 01:25:35;;;;;;;50.22;18.60;;;;;;;;;;5037997;28;20485;-89
2021/10/29 01:28:01;;;;;;;45.58;19.58;;;;;;;;;;5055793;28;20501;-89
2021/10/29 01:30:27;;;;;;;43.65;17.77;;;;;;;;;;5037917;28;20063;-89
2021/10/29 01:32:53;;;;;;;40.22;17.30;;;;;;;;;;5037774;28;20543;-88
2021/10/29 01:35:19;;;;;;;37.58;16.35;;;;;;;;;;5037772;28;20029;-89
2021/10/29 01:37:45;;;;;;;40.80;17.30;;;;;;;;;;5037293;28;20363;-90
2021/10/29 01:40:18;;;;;;;43.90;15.27;;;;;;;;;;5036837;28;20478;-88
2021/10/29 01:42:46;;;;;;;41.95;16.90;;;;;;;;;;5037612;28;20078;-89
2021/10/29 01:45:12;;;;;;;41.45;14.95;;;;;;;;;;5037339;28;20025;-87
2021/10/29 01:47:38;;;;;;;32.60;14.48;;;;;;;;;;5055302;28;20024;-90
2021/10/29 01:50:05;;;;;;;35.15;14.10;;;;;;;;;;5037359;28;20064;-90
2021/10/29 01:52:31;;;;;;;32.83;12.95;;;;;;;;;;5037461;28;20021;-89
2021/10/29 01:54:57;;;;;;;23.33;12.13;;;;;;;;;;5037299;28;20044;-89
2021/10/29 01:57:23;;;;;;;26.33;12.10;;;;;;;;;;5037291;28;20094;-89
2021/10/29 01:59:49;;;;;;;31.05;13.25;;;;;;;;;;5037319;28;20033;-88
2021/10/29 02:02:15;;;;;;;34.28;13.48;;;;;;;;;;5037209;28;20478;-89
2021/10/29 02:04:42;;;;;;;23.67;11.85;;;;;;;;;;5037160;28;20025;-88
2021/10/29 02:07:08;;;;;;;30.05;13.30;;;;;;;;;;5037133;28;20477;-88
2021/10/29 02:09:34;;;;;;;35.78;12.50;;;;;;;;;;5037221;28;20057;-88
2021/10/29 02:12:00;;;;;;;38.33;13.52;;;;;;;;;;5037188;28;20486;-87
2021/10/29 02:14:27;;;;;;;27.98;12.52;;;;;;;;;;5036986;28;20021;-88
2021/10/29 02:16:53;;;;;;;36.97;13.27;;;;;;;;;;5054740;28;20028;-89
2021/10/29 02:19:19;;;;;;;34.65;13.18;;;;;;;;;;5036786;28;20067;-89
2021/10/29 02:21:45;;;;;;;36.38;13.38;;;;;;;;;;5036790;28;20074;-89
2021/10/29 02:24:11;;;;;;;33.60;13.88;;;;;;;;;;5036638;28;20551;-89
2021/10/29 02:26:38;;;;;;;30.42;12.52;;;;;;;;;;5036682;28;20028;-88
2021/10/29 02:29:04;;;;;;;26.00;13.27;;;;;;;;;;5036665;28;20033;-87
2021/10/29 02:31:31;;;;;;;31.63;13.07;;;;;;;;;;5036652;28;20037;-89
2021/10/29 02:33:58;;;;;;;29.85;13.80;;;;;;;;;;5036670;28;20123;-87
2021/10/29 02:36:24;;;;;;;27.80;12.82;;;;;;;;;;5036616;28;20124;-89
2021/10/29 02:38:50;;;;;;;24.38;12.55;;;;;;;;;;5036364;28;20033;-88
2021/10/29 02:41:17;;;;;;;29.08;12.63;;;;;;;;;;5036319;28;20059;-89
2021/10/29 02:43:44;;;;;;;32.17;12.85;;;;;;;;;;5036452;28;20116;-89
2021/10/29 02:46:10;;;;;;;24.52;12.20;;;;;;;;;;5036305;28;20060;-89
2021/10/29 02:48:36;;;;;;;28.75;13.82;;;;;;;;;;5036400;28;20032;-89
2021/10/29 02:51:02;;;;;;;30.17;13.50;;;;;;;;;;5036325;28;20021;-89
2021/10/29 02:53:32;;;;;;;33.63;13.40;;;;;;;;;;5054704;28;20052;-88
2021/10/29 02:55:58;;;;;;;40.47;14.13;;;;;;;;;;5036326;28;20108;-88
2021/10/29 02:58:31;;;;;;;33.17;14.38;;;;;;;;;;5036416;28;20028;-90
2021/10/29 03:00:57;;;;;;;30.45;11.48;;;;;;;;;;5036190;28;20025;-89
2021/10/29 03:03:23;;;;;;;28.58;12.80;;;;;;;;;;5036168;28;20036;-89
2021/10/29 03:05:50;;;;;;;30.30;12.98;;;;;;;;;;5053914;28;20059;-88
2021/10/29 03:08:16;;;;;;;23.65;12.80;;;;;;;;;;5036170;28;20082;-89
2021/10/29 03:10:42;;;;;;;26.98;13.00;;;;;;;;;;5035996;28;20045;-89
2021/10/29 03:13:08;;;;;;;34.72;12.98;;;;;;;;;;5035994;28;20120;-88
2021/10/29 03:15:35;;;;;;;26.08;14.00;;;;;;;;;;5036138;28;20112;-89
2021/10/29 03:18:01;;;;;;;30.67;12.48;;;;;;;;;;5036052;28;20057;-89
2021/10/29 03:20:28;;;;;;;24.73;12.45;;;;;;;;;;5053725;28;20048;-89
2021/10/29 03:22:54;;;;;;;32.45;11.65;;;;;;;;;;5035908;28;20028;-88
2021/10/29 03:25:20;;;;;;;30.35;12.73;;;;;;;;;;5032418;28;20069;-89
2021/10/29 03:27:46;;;;;;;30.25;13.05;;;;;;;;;;5032674;28;20199;-88
2021/10/29 03:30:12;;;;;;;33.08;12.38;;;;;;;;;;5032371;28;20478;-89
2021/10/29 03:32:39;;;;;;;28.98;12.27;;;;;;;;;;5032571;28;20448;-89
2021/10/29 03:35:05;;;;;;;29.65;13.20;;;;;;;;;;5032508;28;20026;-90
2021/10/29 03:37:58;;;;;;;28.85;12.55;;;;;;;;;;5032415;28;20022;-85
2021/10/29 03:45:23;;;;;;;22.20;11.27;;;;;;;;;;5033608;28;20079;-88
2021/10/29 03:47:55;;;;;;;32.28;12.63;;;;;;;;;;5032446;28;20505;-89
2021/10/29 03:50:27;;;;;;;21.25;10.07;;;;;;;;;;5032263;28;20038;-88
2021/10/29 03:53:23;;;;;;;23.08;10.82;;;;;;;;;;5032466;28;20117;-88
2021/10/29 03:55:52;;;;;;;26.33;10.90;;;;;;;;;;5035979;28;20037;-84
2021/10/29 03:58:19;;;;;;;26.45;11.52;;;;;;;;;;5032209;28;20022;-88
2021/10/29 04:00:45;;;;;;;23.05;10.02;;;;;;;;;;5032275;28;20026;-88
2021/10/29 04:03:11;;;;;;;31.02;12.77;;;;;;;;;;5035120;28;20512;-88
2021/10/29 04:05:37;;;;;;;29.65;11.15;;;;;;;;;;5036066;28;20129;-85
2021/10/29 04:08:03;;;;;;;32.92;11.27;;;;;;;;;;5035985;28;20383;-88
2021/10/29 04:10:30;;;;;;;24.02;11.77;;;;;;;;;;5035963;28;20044;-88
2021/10/29 04:12:58;;;;;;;23.45;12.75;;;;;;;;;;5035949;28;20088;-87
2021/10/29 04:15:24;;;;;;;24.77;10.32;;;;;;;;;;5035861;28;20026;-88
2021/10/29 04:17:51;;;;;;;24.50;11.35;;;;;;;;;;5035832;28;20117;-88
2021/10/29 04:20:17;;;;;;;34.03;12.60;;;;;;;;;;5035760;28;20064;-88
2021/10/29 04:22:43;;;;;;;26.27;12.32;;;;;;;;;;5037029;28;20026;-88
2021/10/29 04:25:10;;;;;;;28.33;11.55;;;;;;;;;;5054647;28;20055;-88
2021/10/29 04:27:44;;;;;;;22.20;11.10;;;;;;;;;;5056767;28;20460;-89
2021/10/29 04:30:14;;;;;;;27.88;12.75;;;;;;;;;;5039018;28;20037;-87
2021/10/29 04:32:40;;;;;;;27.15;11.27;;;;;;;;;;5038944;28;20032;-88
2021/10/29 04:35:06;;;;;;;22.52;12.80;;;;;;;;;;5057159;28;20091;-89
2021/10/29 04:37:32;;;;;;;23.30;10.15;;;;;;;;;;5038802;28;20473;-88
2021/10/29 04:39:59;;;;;;;29.42;12.70;;;;;;;;;;5038810;28;20612;-88
2021/10/29 04:42:25;;;;;;;23.20;10.57;;;;;;;;;;5038705;28;20070;-88
2021/10/29 04:44:51;;;;;;;25.90;11.02;;;;;;;;;;5038603;28;20129;-88
2021/10/29 04:47:17;;;;;;;34.05;12.23;;;;;;;;;;5038554;28;20029;-87
2021/10/29 04:49:43;;;;;;;21.73;10.18;;;;;;;;;;5038317;28;20033;-88
2021/10/29 04:52:09;;;;;;;24.95;12.27;;;;;;;;;;5038197;28;20040;-87
2021/10/29 04:54:36;;;;;;;22.38;10.27;;;;;;;;;;5038902;28;20064;-88
2021/10/29 04:57:02;;;;;;;27.80;13.07;;;;;;;;;;5038109;28;20466;-87
2021/10/29 04:59:28;;;;;;;29.90;11.20;;;;;;;;;;5038167;28;20032;-86
2021/10/29 05:01:55;;;;;;;28.20;11.50;;;;;;;;;;5038478;28;20029;-85
2021/10/29 05:04:21;;;;;;;22.83;10.05;;;;;;;;;;5038162;28;20025;-86
2021/10/29 05:06:47;;;;;;;26.10;12.70;;;;;;;;;;5037856;28;20456;-85
2021/10/29 05:09:13;;;;;;;28.23;12.77;;;;;;;;;;5037737;28;20029;-85
2021/10/29 05:11:39;;;;;;;24.95;11.38;;;;;;;;;;5037790;28;20389;-87
2021/10/29 05:14:05;;;;;;;26.60;11.90;;;;;;;;;;5037854;28;20393;-87
2021/10/29 05:16:31;;;;;;;23.95;11.13;;;;;;;;;;5037932;28;20419;-86
2021/10/29 05:18:58;;;;;;;26.63;12.85;;;;;;;;;;5038038;28;20025;-90
2021/10/29 05:21:24;;;;;;;19.05;10.68;;;;;;;;;;5038156;28;20041;-88
2021/10/29 05:23:51;;;;;;;32.60;12.85;;;;;;;;;;5034535;28;20044;-86
2021/10/29 05:26:17;;;;;;;33.22;13.43;;;;;;;;;;5034708;28;20371;-85
2021/10/29 05:28:43;;;;;;;29.50;13.43;;;;;;;;;;5034732;28;20471;-89
2021/10/29 05:31:09;;;;;;;27.27;13.50;;;;;;;;;;5034795;28;20053;-87
2021/10/29 05:33:35;;;;;;;27.02;13.13;;;;;;;;;;5034486;28;20044;-88
2021/10/29 05:36:02;;;;;;;23.50;12.45;;;;;;;;;;5034509;28;20032;-89
2021/10/29 05:38:28;;;;;;;30.50;13.57;;;;;;;;;;5034388;28;20068;-87
2021/10/29 05:40:55;;;;;;;28.63;13.32;;;;;;;;;;5034504;28;20029;-89
2021/10/29 05:43:21;;;;;;;27.85;13.48;;;;;;;;;;5034500;28;20135;-90
2021/10/29 05:45:47;;;;;;;28.65;13.85;;;;;;;;;;5035448;28;20386;-88
2021/10/29 05:48:13;;;;;;;37.67;15.48;;;;;;;;;;5034302;28;20053;-89
2021/10/29 05:50:47;;;;;;;29.58;14.25;;;;;;;;;;5034274;28;20044;-84
2021/10/29 05:53:20;;;;;;;34.60;13.48;;;;;;;;;;5034012;28;20037;-91
2021/10/29 05:55:47;;;;;;;35.40;13.50;;;;;;;;;;5035343;28;20489;-82
2021/10/29 05:58:13;;;;;;;33.40;13.63;;;;;;;;;;5036454;28;20056;-89
2021/10/29 06:00:39;;;;;;;24.13;11.05;;;;;;;;;;5034024;28;20492;-89
2021/10/29 06:03:06;;;;;;;27.98;15.07;;;;;;;;;;5033980;28;20463;-89
2021/10/29 06:05:32;;;;;;;30.00;12.48;;;;;;;;;;5033965;28;20029;-87
2021/10/29 06:07:59;;;;;;;29.08;13.52;;;;;;;;;;5033809;28;20029;-88
2021/10/29 06:10:25;;;;;;;29.13;13.65;;;;;;;;;;5033838;28;20478;-88
2021/10/29 06:12:51;;;;;;;31.00;14.02;;;;;;;;;;5034758;28;20494;-81
2021/10/29 06:15:19;;;;;;;23.50;11.77;;;;;;;;;;5034785;28;20076;-89
2021/10/29 06:17:45;;;;;;;32.38;13.98;;;;;;;;;;5033469;28;20562;-85
2021/10/29 06:20:12;;;;;;;37.70;14.68;;;;;;;;;;5033451;28;20029;-84
2021/10/29 06:23:00;;;;;;;35.33;14.40;;;;;;;;;;5033647;28;20026;-88
2021/10/29 06:25:28;;;;;;;35.10;13.65;;;;;;;;;;5053638;28;20060;-89
2021/10/29 06:30:37;;;;;;;38.47;15.07;;;;;;;;;;5055326;28;20040;-87
2021/10/29 06:33:03;;;;;;;38.03;15.25;;;;;;;;;;5036298;28;20606;-86
2021/10/29 06:35:30;;;;;;;49.35;18.60;;;;;;;;;;5036060;28;20485;-86
2021/10/29 06:37:58;;;;;;;48.20;18.17;;;;;;;;;;5036269;28;20061;-86
2021/10/29 06:40:25;;;;;;;40.10;18.17;;;;;;;;;;5053936;28;20035;-86
2021/10/29 06:42:55;;;;;;;38.08;17.88;;;;;;;;;;5036008;28;20025;-83
2021/10/29 07:40:08;;;;;;;28.48;15.05;;;;;;;;;;5057374;28;20114;-80
2021/10/29 07:43:00;;;;;;;23.23;12.80;;;;;;;;;;5039598;28;20508;-81
2021/10/29 07:45:26;;;;;;;22.23;13.07;;;;;;;;;;5057609;28;20110;-81
2021/10/29 07:47:52;;;;;;;26.95;13.05;;;;;;;;;;5041711;28;20187;-95
2021/10/29 07:50:19;;;;;;;22.52;12.23;;;;;;;;;;5041024;28;20441;-90
2021/10/29 07:52:46;;;;;;;22.00;12.82;;;;;;;;;;5057475;28;20359;-89
2021/10/29 07:55:30;;;;;;;18.90;11.77;;;;;;;;;;5039563;28;20367;-91
